Latest Coastal Weather Observations for Kowanyama

IDQ60701

Issued at 4:52 pm EST Tuesday 26 May 2020 (issued every 10 minutes, with the page automatically refreshed every 10 minutes)

About coastal observations | Map of coastal stations | Coastal observations for QLD | Marine services | Other Formats
Station Details ID: 029038 Name: KOWANYAMA AIRPORT Lat: -15.48 Lon: 141.75 Height: 9.6 m
Data from the previous 72 hours. | See also: Recent months at Kowanyama
Date/Time
EST
Wind Sea
Height
m
Swell Vis
km
Cloud Weather Temp
°C
Press
hPa
Rain since
9am
mm
Dir  Spd
kts
Gust
kts
Height
m
Period
s
Dir
26/04:30pm WSW 8 11 - - - - 10 - - 28.2 1013.8 0.0
26/04:00pm NE 2 4 - - - - 10 Partly cloudy - 29.7 1013.7 0.0
26/03:30pm NW 4 7 - - - - 10 - - 29.5 1013.6 0.0
26/03:00pm NNW 4 7 - - - - 10 - - 28.9 1013.7 0.0
26/02:30pm NW 5 9 - - - - 10 - - 28.7 1013.9 0.0
26/02:00pm NNW 5 10 - - - - 10 - - 28.7 1014.2 0.0
26/01:30pm NNW 1 5 - - - - 10 - - 27.4 1014.9 0.0
26/01:00pm NE 6 10 - - - - 10 Partly cloudy - 26.8 1015.5 0.0
26/12:30pm NW 5 7 - - - - 10 Partly cloudy - 27.9 1016.1 0.0
26/12:00pm SE 6 11 - - - - 10 Mostly clear - 26.2 1016.4 0.0
26/11:30am NNE 7 12 - - - - 10 - - 26.1 1016.9 0.0
26/11:00am ENE 5 9 - - - - 10 - - 25.4 1017.3 0.0
26/10:30am ESE 6 8 - - - - 10 - - 24.4 1017.5 0.0
26/10:00am E 6 9 - - - - 10 - - 23.2 1017.8 0.0
26/09:30am ESE 6 9 - - - - 10 - - 22.1 1017.9 0.0
26/09:00am SE 5 6 - - - - 10 - - 19.5 1018.2 0.0
26/08:30am SE 4 6 - - - - 10 - - 16.8 1018.0 0.0
26/08:00am SSE 1 5 - - - - 10 - - 14.5 1017.8 0.0
26/07:30am CALM 0 0 - - - - 10 - - 12.0 1017.7 0.0
26/07:00am CALM 0 0 - - - - 10 - - 11.2 1017.3 0.0
26/06:30am SE 2 3 - - - - 10 - - 11.3 1017.0 0.0
26/06:00am SSE 3 5 - - - - 10 - - 10.9 1017.0 0.0
26/05:30am SSE 3 4 - - - - 10 - - 10.5 1016.7 0.0
26/05:00am SSE 3 4 - - - - 10 - - 11.0 1016.7 0.0
26/04:30am SE 3 4 - - - - 10 - - 12.3 1016.5 0.0
26/04:00am SSE 3 4 - - - - 10 - - 11.6 1016.5 0.0
26/03:30am E 4 5 - - - - 10 - - 12.0 1016.7 0.0
26/03:00am CALM 0 2 - - - - 10 - - 10.9 1016.6 0.0
26/02:30am CALM 0 0 - - - - 10 - - 11.6 1016.7 0.0
26/02:00am CALM 0 0 - - - - 10 - - 11.9 1016.8 0.0
26/01:30am E 4 5 - - - - 10 - - 12.4 1017.0 0.0
26/01:00am CALM 0 2 - - - - 10 - - 12.3 1017.0 0.0
26/12:30am CALM 0 3 - - - - 10 - - 12.5 1016.9 0.0
26/12:00am SSE 3 3 - - - - 10 - - 12.8 1017.0 0.0
 
Date/Time
EST
Wind Sea
Height
m
Swell Vis
km
Cloud Weather Temp
°C
Press
hPa
Rain since
9am
mm
Dir  Spd
kts
Gust
kts
Height
m
Period
s
Dir
25/11:30pm SSE 3 3 - - - - 10 - - 13.2 1017.0 0.0
25/11:00pm CALM 0 0 - - - - 10 - - 12.8 1016.9 0.0
25/10:30pm CALM 0 0 - - - - 10 - - 13.2 1016.9 0.0
25/10:00pm CALM 0 0 - - - - 10 - - 13.8 1016.9 0.0
25/09:30pm CALM 0 0 - - - - 10 - - 14.5 1016.9 0.0
25/09:00pm SE 3 4 - - - - 10 - - 15.2 1016.7 0.0
25/08:30pm SE 3 4 - - - - 10 - - 15.3 1016.5 0.0
25/08:00pm SE 4 4 - - - - 10 - - 16.1 1016.0 0.0
25/07:30pm CALM 0 0 - - - - 10 - - 16.7 1015.8 0.0
25/07:00pm SE 1 3 - - - - 10 - - 18.5 1015.4 0.0
25/06:30pm CALM 0 0 - - - - 10 Partly cloudy - 20.1 1015.1 0.0
25/06:00pm CALM 0 0 - - - - 10 - - 22.1 1014.7 0.0
25/05:30pm SE 4 6 - - - - 10 - - 25.3 1014.5 0.0
25/05:00pm SSE 5 7 - - - - 10 - - 25.9 1014.3 0.0
25/04:30pm ESE 3 7 - - - - 10 - - 26.3 1014.1 0.0
25/04:00pm E 6 9 - - - - 10 - - 26.2 1014.0 0.0
25/03:30pm SSE 6 10 - - - - 10 - - 25.9 1014.1 0.0
25/03:00pm ESE 6 9 - - - - 10 - - 25.7 1014.3 0.0
25/02:30pm ESE 4 8 - - - - 10 - - 26.0 1014.6 0.0
25/02:00pm SSE 7 10 - - - - 10 - - 26.0 1015.0 0.0
25/01:30pm ESE 7 13 - - - - 10 - - 25.0 1015.3 0.0
25/01:00pm SE 9 16 - - - - 10 - - 24.3 1016.0 0.0
25/12:30pm SSE 10 14 - - - - 10 - - 23.8 1016.6 0.0
25/12:00pm SSE 11 14 - - - - 10 - - 24.1 1017.3 0.0
25/11:30am SE 10 15 - - - - 10 - - 23.1 1017.8 0.0
25/11:00am SSE 8 11 - - - - 10 - - 22.6 1018.1 0.0
25/10:30am SE 8 12 - - - - 10 - - 21.2 1018.8 0.0
25/10:00am SE 8 9 - - - - 10 - - 20.1 1019.2 0.0
25/09:30am SE 8 10 - - - - 10 - - 18.4 1019.1 0.0
25/09:00am SE 8 11 - - - - 10 - - 16.7 1019.1 0.0
25/08:30am SSE 7 11 - - - - 10 Partly cloudy - 15.6 1019.1 0.0
25/08:00am S 5 8 - - - - 10 - - 13.5 1018.9 0.0
25/07:30am S 4 5 - - - - 10 - - 11.1 1018.7 0.0
25/07:00am SSW 3 4 - - - - 10 - - 9.0 1018.4 0.0
25/06:30am CALM 0 0 - - - - 10 - - 9.5 1018.2 0.0
25/06:00am SE 3 3 - - - - 10 - - 10.1 1017.9 0.0
25/05:30am S 3 3 - - - - 10 - - 11.2 1017.4 0.0
25/05:00am SSE 3 4 - - - - 10 - - 12.2 1017.1 0.0
25/04:30am SSE 3 4 - - - - 10 - - 12.1 1016.8 0.0
25/04:00am S 5 6 - - - - 10 - - 12.0 1016.7 0.0
25/03:30am S 6 7 - - - - 10 - - 12.1 1017.1 0.0
25/03:00am S 4 5 - - - - 10 - - 12.5 1016.9 0.0
25/02:30am SSE 4 5 - - - - 10 - - 13.3 1017.0 0.0
25/02:00am S 5 6 - - - - 10 - - 13.4 1017.1 0.0
25/01:30am SSE 4 5 - - - - 10 - - 14.0 1017.2 0.0
25/01:00am S 5 7 - - - - 10 - - 14.3 1017.3 0.0
25/12:30am S 4 5 - - - - 10 - - 14.9 1017.3 0.0
25/12:00am S 6 7 - - - - 10 - - 14.8 1017.3 0.0
 
Date/Time
EST
Wind Sea
Height
m
Swell Vis
km
Cloud Weather Temp
°C
Press
hPa
Rain since
9am
mm
Dir  Spd
kts
Gust
kts
Height
m
Period
s
Dir
24/11:30pm S 6 8 - - - - 10 - - 15.2 1017.5 0.0
24/11:00pm S 4 6 - - - - 10 - - 15.6 1017.5 0.0
24/10:30pm S 5 6 - - - - 10 - - 15.9 1017.5 0.0
24/10:00pm S 5 6 - - - - 10 - - 16.3 1017.4 0.0
24/09:30pm S 5 6 - - - - 10 - - 16.6 1017.2 0.0
24/09:00pm S 5 6 - - - - 10 - - 15.8 1017.0 0.0
24/08:30pm S 3 4 - - - - 10 - - 15.4 1016.8 0.0
24/08:00pm SSE 4 5 - - - - 10 - - 17.6 1016.6 0.0
24/07:30pm S 5 7 - - - - 10 - - 17.9 1016.3 0.0
24/07:00pm S 5 6 - - - - 10 - - 17.5 1015.8 0.0
24/06:30pm S 5 6 - - - - 10 - - 20.1 1015.5 0.0
24/06:00pm SSE 5 6 - - - - 10 - - 21.4 1015.4 0.0
24/05:30pm SSE 6 10 - - - - 10 - - 22.9 1015.1 0.0
24/05:00pm SSE 7 9 - - - - 10 - - 23.5 1015.0 0.0
24/04:30pm SE 7 11 - - - - 10 - - 23.9 1014.8 0.0
24/04:00pm SE 9 12 - - - - 10 - - 24.3 1014.5 0.0
24/03:30pm SE 8 14 - - - - 10 - - 24.3 1014.8 0.0
24/03:00pm SE 10 14 - - - - 10 - - 23.7 1014.9 0.0
24/02:30pm SE 10 14 - - - - 10 - - 24.0 1015.1 0.0
24/02:00pm SSE 11 16 - - - - 10 - - 23.5 1015.5 0.0
24/01:30pm SSE 11 16 - - - - 10 - - 23.7 1015.9 0.0
24/01:00pm SE 12 18 - - - - 10 - - 23.0 1016.3 0.0
24/12:30pm SE 12 17 - - - - 10 - - 22.4 1016.6 0.0
24/12:00pm SE 13 18 - - - - 10 - - 21.4 1017.1 0.0
24/11:30am SE 13 20 - - - - 10 - - 20.7 1017.5 0.0
24/11:00am SE 15 19 - - - - 10 - - 20.1 1018.0 0.0
24/10:30am SE 15 22 - - - - 10 - - 19.1 1018.5 0.0
24/10:00am SSE 14 21 - - - - 10 Partly cloudy - 17.6 1018.7 0.0
24/09:30am SSE 8 11 - - - - 10 - - 16.5 1019.2 0.0
24/09:00am SSE 8 11 - - - - 10 - - 15.0 1019.0 0.6
24/08:30am S 7 8 - - - - 10 - - 13.9 1018.7 0.6
24/08:00am S 5 7 - - - - 10 - - 11.9 1018.3 0.6
24/07:30am S 3 5 - - - - 10 - - 10.8 1018.1 0.6
24/07:00am SSE 4 4 - - - - 10 - - 10.4 1017.9 0.6
24/06:30am CALM 0 0 - - - - 10 - - 11.1 1017.6 0.6
24/06:00am CALM 0 0 - - - - 10 Mostly clear - 11.5 1017.2 0.6
24/05:30am SSE 2 4 - - - - 10 - - 11.9 1016.8 0.6
24/05:00am SE 3 4 - - - - 10 - - 12.3 1016.5 0.6
24/04:30am SSE 5 5 - - - - 10 - - 12.7 1016.3 0.6
24/04:00am SSE 5 6 - - - - 10 - - 13.2 1016.2 0.6
24/03:30am SSE 5 7 - - - - 10 - - 14.0 1016.4 0.6
24/03:00am SSE 7 8 - - - - 10 Mostly cloudy - 14.5 1016.2 0.6
24/02:30am SSE 7 9 - - - - 10 - - 14.9 1016.5 0.6
24/02:00am SSE 6 9 - - - - 10 - - 15.1 1016.6 0.6
24/01:30am SSE 6 9 - - - - 10 - - 15.0 1016.7 0.6
24/01:00am SSE 6 8 - - - - 10 - - 15.0 1017.0 0.6
24/12:30am SSE 8 11 - - - - 10 - - 15.3 1017.2 0.6
24/12:00am SSE 10 14 - - - - 10 Cloudy - 15.3 1016.9 0.6
 
Date/Time
EST
Wind Sea
Height
m
Swell Vis
km
Cloud Weather Temp
°C
Press
hPa
Rain since
9am
mm
Dir  Spd
kts
Gust
kts
Height
m
Period
s
Dir
23/11:30pm SSE 8 11 - - - - 10 Cloudy - 15.3 1017.4 0.6
23/11:00pm SSE 9 15 - - - - 10 Partly cloudy - 15.3 1017.5 0.6
23/10:30pm SSE 9 12 - - - - 10 Partly cloudy - 15.6 1016.9 0.6
23/10:00pm S 9 13 - - - - 10 Partly cloudy - 15.8 1016.9 0.6
23/09:30pm S 7 11 - - - - 10 Cloudy - 15.9 1016.8 0.6
23/09:00pm S 10 14 - - - - 10 Cloudy - 16.1 1016.3 0.6
23/08:34pm S 7 10 - - - - 10 Cloudy - 16.2 1015.9 0.6
23/08:30pm S 7 9 - - - - 10 Cloudy - 16.2 1016.0 0.6
23/08:06pm S 7 9 - - - - 10 Partly cloudy - 16.2 1015.5 0.6
23/08:05pm S 7 11 - - - - 10 Partly cloudy - 16.2 1015.5 0.6
23/08:00pm S 7 11 - - - - 10 Partly cloudy - 16.1 1015.5 0.6
23/07:30pm S 7 9 - - - - 10 Cloudy - 16.4 1015.1 0.6
23/07:07pm S 7 9 - - - - 10 Partly cloudy - 16.4 1014.9 0.6
23/07:00pm S 7 10 - - - - 10 Partly cloudy - 16.4 1015.2 0.6
23/06:30pm S 6 7 - - - - 10 Partly cloudy - 16.5 1015.1 0.6
23/06:21pm S 6 8 - - - - 10 Partly cloudy - 16.5 1015.0 0.6
23/06:00pm S 6 9 - - - - 10 Cloudy Showers 16.6 1014.8 0.6
23/05:50pm SSW 6 8 - - - - 10 Partly cloudy - 16.6 1014.7 0.6
23/05:30pm SSE 6 8 - - - - 10 Cloudy - 16.7 1013.8 0.6
23/05:00pm S 6 11 - - - - 10 Partly cloudy - 16.8 1014.3 0.6

Other formats

Comma delimited format used in spreadsheet applications
http://www.bom.gov.au/fwo/IDQ60701/IDQ60701.94268.axf

JavaScript Object Notation format (JSON) in row-major order
http://www.bom.gov.au/fwo/IDQ60701/IDQ60701.94268.json

Data quality

Most of these data are generated automatically and are frequently updated. Quality checks on data are not normally performed. It is possible for incorrect values to appear. Refer to information at About Latest Weather Observations and please check the disclaimer before using these data.